Creelsboro, Kentucky
Current Conditions -  °F | °C
As of 4:56 PM on Friday 19 Dec 2014 (Local Time) from KEKQ Reporting Station
Clear Clear  
Wind Chill: 32°   Ceiling: Unl
Heat Index: 32°   Visibility: 10mi
Dew Point: 27°   Wind: 3mph
Humidity: 82%   Direction: 350°N
Pressure: 30.26"   Gusts: NA
Location:  36.9448°N, 85.1275°W
Report Text: KEKQ 192256Z AUTO 35003KT 10SM CLR 00/M03 A3026 RMK AO2 T00001027 SLP258
Loading
Personal Weather Stations






























Interactive Weather Map New forecast layout! Learn more

10-Day Weather Forecast

Advertisements
Track Severe Weather on mobile